sensor_id;sensor_type;location;lat;lon;timestamp;P1;durP1;ratioP1;P2;durP2;ratioP2
71106;SDS011;58763;47.982;11.516;2023-06-14T00:01:47;5.55;;;3.20;;
71106;SDS011;58763;47.982;11.516;2023-06-14T00:04:14;7.80;;;3.95;;
71106;SDS011;58763;47.982;11.516;2023-06-14T00:06:42;7.10;;;3.50;;
71106;SDS011;58763;47.982;11.516;2023-06-14T00:09:10;6.43;;;3.55;;
71106;SDS011;58763;47.982;11.516;2023-06-14T00:11:39;5.80;;;3.42;;
71106;SDS011;58763;47.982;11.516;2023-06-14T00:14:06;7.45;;;3.45;;
71106;SDS011;58763;47.982;11.516;2023-06-14T00:16:31;5.88;;;3.40;;
71106;SDS011;58763;47.982;11.516;2023-06-14T00:18:58;6.80;;;3.40;;
71106;SDS011;58763;47.982;11.516;2023-06-14T00:21:24;5.63;;;3.25;;
71106;SDS011;58763;47.982;11.516;2023-06-14T00:23:55;7.93;;;3.08;;
71106;SDS011;58763;47.982;11.516;2023-06-14T00:26:21;6.95;;;3.00;;
71106;SDS011;58763;47.982;11.516;2023-06-14T00:28:46;6.32;;;2.88;;
71106;SDS011;58763;47.982;11.516;2023-06-14T00:31:12;6.95;;;3.33;;
71106;SDS011;58763;47.982;11.516;2023-06-14T00:33:37;6.20;;;3.45;;
71106;SDS011;58763;47.982;11.516;2023-06-14T00:36:02;5.70;;;3.50;;
71106;SDS011;58763;47.982;11.516;2023-06-14T00:38:28;7.35;;;3.42;;
71106;SDS011;58763;47.982;11.516;2023-06-14T00:40:54;8.95;;;3.35;;
71106;SDS011;58763;47.982;11.516;2023-06-14T00:43:20;7.38;;;3.90;;
71106;SDS011;58763;47.982;11.516;2023-06-14T00:45:45;6.95;;;3.38;;
71106;SDS011;58763;47.982;11.516;2023-06-14T00:48:11;7.93;;;3.30;;
71106;SDS011;58763;47.982;11.516;2023-06-14T00:50:38;7.68;;;3.53;;
71106;SDS011;58763;47.982;11.516;2023-06-14T00:53:05;5.93;;;3.50;;
71106;SDS011;58763;47.982;11.516;2023-06-14T00:55:31;5.40;;;3.30;;
71106;SDS011;58763;47.982;11.516;2023-06-14T00:57:58;5.72;;;2.85;;
71106;SDS011;58763;47.982;11.516;2023-06-14T01:00:24;5.47;;;3.13;;
71106;SDS011;58763;47.982;11.516;2023-06-14T01:02:49;6.07;;;3.50;;
71106;SDS011;58763;47.982;11.516;2023-06-14T01:05:15;6.03;;;3.50;;
71106;SDS011;58763;47.982;11.516;2023-06-14T01:08:05;5.00;;;3.20;;
71106;SDS011;58763;47.982;11.516;2023-06-14T01:13:34;6.63;;;2.90;;
71106;SDS011;58763;47.982;11.516;2023-06-14T01:16:05;5.43;;;2.88;;
71106;SDS011;58763;47.982;11.516;2023-06-14T01:18:33;6.93;;;3.60;;
71106;SDS011;58763;47.982;11.516;2023-06-14T01:21:00;6.72;;;3.20;;
71106;SDS011;58763;47.982;11.516;2023-06-14T01:25:58;7.93;;;3.13;;
71106;SDS011;58763;47.982;11.516;2023-06-14T01:28:25;6.97;;;3.22;;
71106;SDS011;58763;47.982;11.516;2023-06-14T01:30:57;6.40;;;3.47;;
71106;SDS011;58763;47.982;11.516;2023-06-14T01:33:28;6.78;;;3.33;;
71106;SDS011;58763;47.982;11.516;2023-06-14T01:35:54;7.55;;;3.58;;
71106;SDS011;58763;47.982;11.516;2023-06-14T01:38:24;6.28;;;3.38;;
71106;SDS011;58763;47.982;11.516;2023-06-14T01:40:51;5.55;;;3.55;;
71106;SDS011;58763;47.982;11.516;2023-06-14T01:43:19;5.65;;;3.30;;
71106;SDS011;58763;47.982;11.516;2023-06-14T01:45:45;6.35;;;3.40;;
71106;SDS011;58763;47.982;11.516;2023-06-14T01:48:12;7.93;;;3.10;;
71106;SDS011;58763;47.982;11.516;2023-06-14T01:50:39;6.93;;;3.42;;
71106;SDS011;58763;47.982;11.516;2023-06-14T01:53:07;7.95;;;3.40;;
71106;SDS011;58763;47.982;11.516;2023-06-14T01:55:34;5.60;;;3.13;;
71106;SDS011;58763;47.982;11.516;2023-06-14T01:58:03;7.65;;;3.58;;
71106;SDS011;58763;47.982;11.516;2023-06-14T02:00:29;6.57;;;3.50;;
71106;SDS011;58763;47.982;11.516;2023-06-14T02:02:54;5.70;;;3.60;;
71106;SDS011;58763;47.982;11.516;2023-06-14T02:05:21;7.50;;;3.60;;
71106;SDS011;58763;47.982;11.516;2023-06-14T02:07:47;6.70;;;3.45;;
71106;SDS011;58763;47.982;11.516;2023-06-14T02:10:12;6.93;;;3.55;;
71106;SDS011;58763;47.982;11.516;2023-06-14T02:12:39;6.60;;;3.83;;
71106;SDS011;58763;47.982;11.516;2023-06-14T02:15:05;6.10;;;3.00;;
71106;SDS011;58763;47.982;11.516;2023-06-14T02:17:32;6.88;;;3.65;;
71106;SDS011;58763;47.982;11.516;2023-06-14T02:19:57;10.13;;;4.25;;
71106;SDS011;58763;47.982;11.516;2023-06-14T02:22:23;6.32;;;3.33;;
71106;SDS011;58763;47.982;11.516;2023-06-14T02:24:49;5.63;;;3.25;;
71106;SDS011;58763;47.982;11.516;2023-06-14T02:27:15;6.97;;;3.67;;
71106;SDS011;58763;47.982;11.516;2023-06-14T02:29:40;6.00;;;4.05;;
71106;SDS011;58763;47.982;11.516;2023-06-14T02:32:06;7.32;;;4.15;;
71106;SDS011;58763;47.982;11.516;2023-06-14T02:34:33;7.07;;;3.92;;
71106;SDS011;58763;47.982;11.516;2023-06-14T02:36:59;7.05;;;4.10;;
71106;SDS011;58763;47.982;11.516;2023-06-14T02:39:29;6.93;;;4.00;;
71106;SDS011;58763;47.982;11.516;2023-06-14T02:41:55;6.40;;;4.72;;
71106;SDS011;58763;47.982;11.516;2023-06-14T02:44:24;7.15;;;4.75;;
71106;SDS011;58763;47.982;11.516;2023-06-14T02:46:52;7.65;;;5.03;;
71106;SDS011;58763;47.982;11.516;2023-06-14T02:49:21;8.20;;;5.45;;
71106;SDS011;58763;47.982;11.516;2023-06-14T02:51:47;6.63;;;4.63;;
71106;SDS011;58763;47.982;11.516;2023-06-14T02:54:12;7.70;;;4.90;;
71106;SDS011;58763;47.982;11.516;2023-06-14T02:56:38;6.90;;;5.03;;
71106;SDS011;58763;47.982;11.516;2023-06-14T02:59:04;7.25;;;5.38;;
71106;SDS011;58763;47.982;11.516;2023-06-14T03:01:29;7.65;;;5.63;;
71106;SDS011;58763;47.982;11.516;2023-06-14T03:03:58;6.28;;;4.90;;
71106;SDS011;58763;47.982;11.516;2023-06-14T03:06:24;6.45;;;4.63;;
71106;SDS011;58763;47.982;11.516;2023-06-14T03:08:50;6.82;;;4.30;;
71106;SDS011;58763;47.982;11.516;2023-06-14T03:11:16;6.28;;;4.25;;
71106;SDS011;58763;47.982;11.516;2023-06-14T03:13:45;6.43;;;4.40;;
71106;SDS011;58763;47.982;11.516;2023-06-14T03:16:12;7.95;;;4.40;;
71106;SDS011;58763;47.982;11.516;2023-06-14T03:18:37;8.13;;;4.57;;
71106;SDS011;58763;47.982;11.516;2023-06-14T03:21:03;6.43;;;4.50;;
71106;SDS011;58763;47.982;11.516;2023-06-14T03:23:30;9.30;;;4.40;;
71106;SDS011;58763;47.982;11.516;2023-06-14T03:25:56;7.22;;;4.63;;
71106;SDS011;58763;47.982;11.516;2023-06-14T03:28:22;7.22;;;4.20;;
71106;SDS011;58763;47.982;11.516;2023-06-14T03:30:47;7.25;;;3.90;;
71106;SDS011;58763;47.982;11.516;2023-06-14T03:33:13;6.53;;;3.55;;
71106;SDS011;58763;47.982;11.516;2023-06-14T03:35:39;6.78;;;3.75;;
71106;SDS011;58763;47.982;11.516;2023-06-14T03:38:04;6.38;;;3.92;;
71106;SDS011;58763;47.982;11.516;2023-06-14T03:40:30;7.00;;;3.80;;
71106;SDS011;58763;47.982;11.516;2023-06-14T03:42:56;6.60;;;4.00;;
71106;SDS011;58763;47.982;11.516;2023-06-14T03:45:22;6.82;;;4.05;;
71106;SDS011;58763;47.982;11.516;2023-06-14T03:47:47;10.10;;;3.85;;
71106;SDS011;58763;47.982;11.516;2023-06-14T03:50:13;7.25;;;3.80;;
71106;SDS011;58763;47.982;11.516;2023-06-14T03:52:40;6.70;;;3.40;;
71106;SDS011;58763;47.982;11.516;2023-06-14T03:55:08;6.50;;;3.85;;
71106;SDS011;58763;47.982;11.516;2023-06-14T03:57:33;7.18;;;4.18;;
71106;SDS011;58763;47.982;11.516;2023-06-14T03:59:59;7.13;;;4.43;;
71106;SDS011;58763;47.982;11.516;2023-06-14T04:02:25;7.43;;;4.57;;
71106;SDS011;58763;47.982;11.516;2023-06-14T04:04:54;8.25;;;4.88;;
71106;SDS011;58763;47.982;11.516;2023-06-14T04:07:19;10.65;;;4.63;;
71106;SDS011;58763;47.982;11.516;2023-06-14T04:09:45;7.85;;;4.90;;
71106;SDS011;58763;47.982;11.516;2023-06-14T04:12:12;7.03;;;5.00;;
71106;SDS011;58763;47.982;11.516;2023-06-14T04:14:39;7.95;;;5.15;;
71106;SDS011;58763;47.982;11.516;2023-06-14T04:17:05;7.88;;;5.00;;
71106;SDS011;58763;47.982;11.516;2023-06-14T04:19:31;6.65;;;4.40;;
71106;SDS011;58763;47.982;11.516;2023-06-14T04:21:57;6.63;;;4.72;;
71106;SDS011;58763;47.982;11.516;2023-06-14T04:24:26;6.32;;;4.13;;
71106;SDS011;58763;47.982;11.516;2023-06-14T04:29:23;7.35;;;4.13;;
71106;SDS011;58763;47.982;11.516;2023-06-14T04:31:53;6.75;;;3.85;;
71106;SDS011;58763;47.982;11.516;2023-06-14T04:34:19;7.28;;;4.38;;
71106;SDS011;58763;47.982;11.516;2023-06-14T04:36:47;6.00;;;3.75;;
71106;SDS011;58763;47.982;11.516;2023-06-14T04:39:21;5.78;;;4.00;;
71106;SDS011;58763;47.982;11.516;2023-06-14T04:41:47;8.30;;;4.30;;
71106;SDS011;58763;47.982;11.516;2023-06-14T04:44:18;8.07;;;4.43;;
71106;SDS011;58763;47.982;11.516;2023-06-14T04:46:45;8.13;;;4.50;;
71106;SDS011;58763;47.982;11.516;2023-06-14T04:49:17;8.15;;;4.28;;
71106;SDS011;58763;47.982;11.516;2023-06-14T04:51:43;6.75;;;4.03;;
71106;SDS011;58763;47.982;11.516;2023-06-14T04:54:11;8.88;;;4.40;;
71106;SDS011;58763;47.982;11.516;2023-06-14T04:56:42;6.47;;;4.38;;
71106;SDS011;58763;47.982;11.516;2023-06-14T04:59:08;7.97;;;4.22;;
71106;SDS011;58763;47.982;11.516;2023-06-14T05:01:34;7.32;;;4.25;;
71106;SDS011;58763;47.982;11.516;2023-06-14T05:04:00;6.68;;;3.83;;
71106;SDS011;58763;47.982;11.516;2023-06-14T05:06:26;6.45;;;3.92;;
71106;SDS011;58763;47.982;11.516;2023-06-14T05:08:53;7.90;;;4.05;;
71106;SDS011;58763;47.982;11.516;2023-06-14T05:11:19;7.65;;;3.78;;
71106;SDS011;58763;47.982;11.516;2023-06-14T05:13:45;6.38;;;3.65;;
71106;SDS011;58763;47.982;11.516;2023-06-14T05:16:12;6.55;;;3.40;;
71106;SDS011;58763;47.982;11.516;2023-06-14T05:18:38;6.97;;;3.60;;
71106;SDS011;58763;47.982;11.516;2023-06-14T05:21:05;5.68;;;3.60;;
71106;SDS011;58763;47.982;11.516;2023-06-14T05:23:31;5.55;;;3.30;;
71106;SDS011;58763;47.982;11.516;2023-06-14T05:25:57;6.20;;;3.70;;
71106;SDS011;58763;47.982;11.516;2023-06-14T05:28:22;8.20;;;3.70;;
71106;SDS011;58763;47.982;11.516;2023-06-14T05:30:49;7.30;;;3.70;;
71106;SDS011;58763;47.982;11.516;2023-06-14T05:33:15;6.95;;;3.88;;
71106;SDS011;58763;47.982;11.516;2023-06-14T05:35:40;6.03;;;3.72;;
71106;SDS011;58763;47.982;11.516;2023-06-14T05:38:05;5.72;;;3.58;;
71106;SDS011;58763;47.982;11.516;2023-06-14T05:40:32;6.18;;;3.45;;
71106;SDS011;58763;47.982;11.516;2023-06-14T05:42:58;7.78;;;3.78;;
71106;SDS011;58763;47.982;11.516;2023-06-14T05:45:24;5.60;;;3.40;;
71106;SDS011;58763;47.982;11.516;2023-06-14T05:47:50;9.30;;;4.07;;
71106;SDS011;58763;47.982;11.516;2023-06-14T05:50:15;7.13;;;3.50;;
71106;SDS011;58763;47.982;11.516;2023-06-14T05:52:41;5.65;;;3.58;;
71106;SDS011;58763;47.982;11.516;2023-06-14T05:55:06;5.82;;;3.35;;
71106;SDS011;58763;47.982;11.516;2023-06-14T05:57:32;5.72;;;3.42;;
71106;SDS011;58763;47.982;11.516;2023-06-14T05:59:58;6.18;;;3.33;;
71106;SDS011;58763;47.982;11.516;2023-06-14T06:02:24;6.35;;;3.38;;
71106;SDS011;58763;47.982;11.516;2023-06-14T06:04:50;6.18;;;3.20;;
71106;SDS011;58763;47.982;11.516;2023-06-14T06:07:16;6.20;;;3.35;;
71106;SDS011;58763;47.982;11.516;2023-06-14T06:09:42;6.97;;;3.50;;
71106;SDS011;58763;47.982;11.516;2023-06-14T06:12:08;6.82;;;3.10;;
71106;SDS011;58763;47.982;11.516;2023-06-14T06:14:34;6.68;;;3.08;;
71106;SDS011;58763;47.982;11.516;2023-06-14T06:16:59;8.73;;;3.40;;
71106;SDS011;58763;47.982;11.516;2023-06-14T06:19:25;6.57;;;3.03;;
71106;SDS011;58763;47.982;11.516;2023-06-14T06:21:50;5.80;;;3.17;;
71106;SDS011;58763;47.982;11.516;2023-06-14T06:24:16;5.85;;;2.90;;
71106;SDS011;58763;47.982;11.516;2023-06-14T06:26:42;6.50;;;3.00;;
71106;SDS011;58763;47.982;11.516;2023-06-14T06:29:08;6.00;;;2.85;;
71106;SDS011;58763;47.982;11.516;2023-06-14T06:31:33;6.13;;;2.97;;
71106;SDS011;58763;47.982;11.516;2023-06-14T06:33:59;5.28;;;2.95;;
71106;SDS011;58763;47.982;11.516;2023-06-14T06:36:24;6.28;;;3.10;;
71106;SDS011;58763;47.982;11.516;2023-06-14T06:38:50;5.22;;;3.00;;
71106;SDS011;58763;47.982;11.516;2023-06-14T06:41:15;5.68;;;3.10;;
71106;SDS011;58763;47.982;11.516;2023-06-14T06:43:41;5.75;;;3.30;;
71106;SDS011;58763;47.982;11.516;2023-06-14T06:46:07;5.18;;;3.00;;
71106;SDS011;58763;47.982;11.516;2023-06-14T06:48:33;4.60;;;2.72;;
71106;SDS011;58763;47.982;11.516;2023-06-14T06:50:58;7.63;;;3.10;;
71106;SDS011;58763;47.982;11.516;2023-06-14T06:53:24;5.30;;;2.80;;
71106;SDS011;58763;47.982;11.516;2023-06-14T06:55:49;4.63;;;2.65;;
71106;SDS011;58763;47.982;11.516;2023-06-14T06:58:15;7.03;;;3.00;;
71106;SDS011;58763;47.982;11.516;2023-06-14T07:00:40;7.80;;;2.65;;
71106;SDS011;58763;47.982;11.516;2023-06-14T07:03:06;5.50;;;2.65;;
71106;SDS011;58763;47.982;11.516;2023-06-14T07:05:32;5.93;;;2.63;;
71106;SDS011;58763;47.982;11.516;2023-06-14T07:07:58;8.60;;;2.95;;
71106;SDS011;58763;47.982;11.516;2023-06-14T07:10:23;6.93;;;3.00;;
71106;SDS011;58763;47.982;11.516;2023-06-14T07:12:52;5.07;;;2.70;;
71106;SDS011;58763;47.982;11.516;2023-06-14T07:15:17;6.22;;;2.78;;
71106;SDS011;58763;47.982;11.516;2023-06-14T07:17:43;5.47;;;2.88;;
71106;SDS011;58763;47.982;11.516;2023-06-14T07:20:09;5.03;;;2.72;;
71106;SDS011;58763;47.982;11.516;2023-06-14T07:22:41;5.75;;;2.50;;
71106;SDS011;58763;47.982;11.516;2023-06-14T07:25:08;7.72;;;3.20;;
71106;SDS011;58763;47.982;11.516;2023-06-14T07:27:34;5.13;;;3.00;;
71106;SDS011;58763;47.982;11.516;2023-06-14T07:29:59;7.65;;;3.10;;
71106;SDS011;58763;47.982;11.516;2023-06-14T07:32:25;6.30;;;3.00;;
71106;SDS011;58763;47.982;11.516;2023-06-14T07:34:51;5.03;;;2.72;;
71106;SDS011;58763;47.982;11.516;2023-06-14T07:37:16;4.70;;;2.78;;
71106;SDS011;58763;47.982;11.516;2023-06-14T07:39:42;4.35;;;2.65;;
71106;SDS011;58763;47.982;11.516;2023-06-14T07:42:07;4.68;;;2.60;;
71106;SDS011;58763;47.982;11.516;2023-06-14T07:44:33;5.30;;;2.75;;
71106;SDS011;58763;47.982;11.516;2023-06-14T07:46:59;4.82;;;2.47;;
71106;SDS011;58763;47.982;11.516;2023-06-14T07:49:25;4.72;;;2.78;;
71106;SDS011;58763;47.982;11.516;2023-06-14T07:51:51;5.47;;;2.67;;
71106;SDS011;58763;47.982;11.516;2023-06-14T07:54:16;5.95;;;2.78;;
71106;SDS011;58763;47.982;11.516;2023-06-14T07:56:42;5.15;;;2.80;;
71106;SDS011;58763;47.982;11.516;2023-06-14T07:59:08;5.55;;;2.60;;
71106;SDS011;58763;47.982;11.516;2023-06-14T08:01:33;4.47;;;2.53;;
71106;SDS011;58763;47.982;11.516;2023-06-14T08:03:59;6.03;;;2.65;;
71106;SDS011;58763;47.982;11.516;2023-06-14T08:06:24;5.20;;;3.03;;
71106;SDS011;58763;47.982;11.516;2023-06-14T08:08:51;4.63;;;2.38;;
71106;SDS011;58763;47.982;11.516;2023-06-14T08:11:16;4.68;;;2.50;;
71106;SDS011;58763;47.982;11.516;2023-06-14T08:13:42;6.80;;;2.58;;
71106;SDS011;58763;47.982;11.516;2023-06-14T08:16:07;6.35;;;2.30;;
71106;SDS011;58763;47.982;11.516;2023-06-14T08:18:33;6.53;;;2.55;;
71106;SDS011;58763;47.982;11.516;2023-06-14T08:20:58;5.93;;;2.35;;
71106;SDS011;58763;47.982;11.516;2023-06-14T08:23:24;6.85;;;2.38;;
71106;SDS011;58763;47.982;11.516;2023-06-14T08:25:50;5.55;;;2.28;;
71106;SDS011;58763;47.982;11.516;2023-06-14T08:28:15;5.45;;;2.25;;
71106;SDS011;58763;47.982;11.516;2023-06-14T08:30:41;4.72;;;2.28;;
71106;SDS011;58763;47.982;11.516;2023-06-14T08:33:07;4.40;;;2.42;;
71106;SDS011;58763;47.982;11.516;2023-06-14T08:35:33;6.65;;;2.53;;
71106;SDS011;58763;47.982;11.516;2023-06-14T08:38:02;4.10;;;2.30;;
71106;SDS011;58763;47.982;11.516;2023-06-14T08:40:29;4.68;;;2.22;;
71106;SDS011;58763;47.982;11.516;2023-06-14T08:42:55;5.82;;;2.42;;
71106;SDS011;58763;47.982;11.516;2023-06-14T08:45:21;4.53;;;2.50;;
71106;SDS011;58763;47.982;11.516;2023-06-14T08:47:47;6.13;;;2.20;;
71106;SDS011;58763;47.982;11.516;2023-06-14T08:50:20;5.00;;;2.33;;
71106;SDS011;58763;47.982;11.516;2023-06-14T08:52:48;5.60;;;2.25;;
71106;SDS011;58763;47.982;11.516;2023-06-14T08:55:22;6.13;;;2.53;;
71106;SDS011;58763;47.982;11.516;2023-06-14T08:57:53;4.55;;;2.40;;
71106;SDS011;58763;47.982;11.516;2023-06-14T09:00:20;4.70;;;2.40;;
71106;SDS011;58763;47.982;11.516;2023-06-14T09:02:46;6.82;;;2.38;;
71106;SDS011;58763;47.982;11.516;2023-06-14T09:05:12;5.82;;;2.40;;
71106;SDS011;58763;47.982;11.516;2023-06-14T09:07:39;5.40;;;2.45;;
71106;SDS011;58763;47.982;11.516;2023-06-14T09:10:09;4.53;;;2.65;;
71106;SDS011;58763;47.982;11.516;2023-06-14T09:12:39;4.80;;;2.25;;
71106;SDS011;58763;47.982;11.516;2023-06-14T09:15:06;9.65;;;2.67;;
71106;SDS011;58763;47.982;11.516;2023-06-14T09:17:35;5.07;;;2.47;;
71106;SDS011;58763;47.982;11.516;2023-06-14T09:20:02;7.30;;;2.80;;
71106;SDS011;58763;47.982;11.516;2023-06-14T09:22:31;5.43;;;2.53;;
71106;SDS011;58763;47.982;11.516;2023-06-14T09:24:58;5.50;;;2.40;;
71106;SDS011;58763;47.982;11.516;2023-06-14T09:27:31;4.70;;;2.42;;
71106;SDS011;58763;47.982;11.516;2023-06-14T09:29:57;6.63;;;2.50;;
71106;SDS011;58763;47.982;11.516;2023-06-14T09:32:23;5.57;;;2.60;;
71106;SDS011;58763;47.982;11.516;2023-06-14T09:34:49;4.32;;;2.20;;
71106;SDS011;58763;47.982;11.516;2023-06-14T09:37:28;5.15;;;2.40;;
71106;SDS011;58763;47.982;11.516;2023-06-14T09:39:57;4.88;;;2.63;;
71106;SDS011;58763;47.982;11.516;2023-06-14T09:42:23;7.05;;;2.70;;
71106;SDS011;58763;47.982;11.516;2023-06-14T09:44:53;8.05;;;2.67;;
71106;SDS011;58763;47.982;11.516;2023-06-14T09:47:20;4.70;;;2.72;;
71106;SDS011;58763;47.982;11.516;2023-06-14T09:49:47;6.07;;;2.60;;
71106;SDS011;58763;47.982;11.516;2023-06-14T09:52:17;5.22;;;2.60;;
71106;SDS011;58763;47.982;11.516;2023-06-14T09:54:44;4.10;;;2.55;;
71106;SDS011;58763;47.982;11.516;2023-06-14T09:57:13;5.03;;;2.70;;
71106;SDS011;58763;47.982;11.516;2023-06-14T09:59:44;5.97;;;2.80;;
71106;SDS011;58763;47.982;11.516;2023-06-14T10:02:12;4.60;;;2.55;;
71106;SDS011;58763;47.982;11.516;2023-06-14T10:04:49;5.50;;;2.67;;
71106;SDS011;58763;47.982;11.516;2023-06-14T10:07:19;9.00;;;2.95;;
71106;SDS011;58763;47.982;11.516;2023-06-14T10:09:46;4.80;;;2.40;;
71106;SDS011;58763;47.982;11.516;2023-06-14T10:12:17;6.15;;;2.78;;
71106;SDS011;58763;47.982;11.516;2023-06-14T10:14:48;4.57;;;2.85;;
71106;SDS011;58763;47.982;11.516;2023-06-14T10:17:20;9.15;;;3.13;;
71106;SDS011;58763;47.982;11.516;2023-06-14T10:19:55;4.97;;;2.95;;
71106;SDS011;58763;47.982;11.516;2023-06-14T10:22:32;6.45;;;3.05;;
71106;SDS011;58763;47.982;11.516;2023-06-14T10:25:06;7.03;;;3.20;;
71106;SDS011;58763;47.982;11.516;2023-06-14T10:27:37;4.55;;;2.63;;
71106;SDS011;58763;47.982;11.516;2023-06-14T10:30:03;5.80;;;2.97;;
71106;SDS011;58763;47.982;11.516;2023-06-14T10:32:31;5.78;;;3.08;;
71106;SDS011;58763;47.982;11.516;2023-06-14T10:37:24;6.38;;;2.80;;
71106;SDS011;58763;47.982;11.516;2023-06-14T10:39:50;7.05;;;2.85;;
71106;SDS011;58763;47.982;11.516;2023-06-14T10:42:16;4.93;;;2.70;;
71106;SDS011;58763;47.982;11.516;2023-06-14T10:44:45;4.15;;;2.55;;
71106;SDS011;58763;47.982;11.516;2023-06-14T10:49:57;5.25;;;2.72;;
71106;SDS011;58763;47.982;11.516;2023-06-14T10:52:28;5.00;;;2.63;;
71106;SDS011;58763;47.982;11.516;2023-06-14T10:55:04;4.25;;;2.63;;
71106;SDS011;58763;47.982;11.516;2023-06-14T10:57:40;5.35;;;2.72;;
71106;SDS011;58763;47.982;11.516;2023-06-14T11:00:22;6.03;;;2.75;;
71106;SDS011;58763;47.982;11.516;2023-06-14T11:05:52;5.65;;;2.80;;
71106;SDS011;58763;47.982;11.516;2023-06-14T11:10:58;5.03;;;3.05;;
71106;SDS011;58763;47.982;11.516;2023-06-14T11:13:25;4.53;;;2.78;;
71106;SDS011;58763;47.982;11.516;2023-06-14T11:15:52;5.25;;;2.40;;
71106;SDS011;58763;47.982;11.516;2023-06-14T11:18:22;5.07;;;2.72;;
71106;SDS011;58763;47.982;11.516;2023-06-14T11:20:50;5.28;;;3.08;;
71106;SDS011;58763;47.982;11.516;2023-06-14T11:23:16;5.38;;;2.72;;
71106;SDS011;58763;47.982;11.516;2023-06-14T11:25:42;5.40;;;3.10;;
71106;SDS011;58763;47.982;11.516;2023-06-14T11:28:08;8.15;;;2.85;;
71106;SDS011;58763;47.982;11.516;2023-06-14T11:30:33;8.48;;;2.70;;
71106;SDS011;58763;47.982;11.516;2023-06-14T11:32:59;6.18;;;2.90;;
71106;SDS011;58763;47.982;11.516;2023-06-14T11:35:25;5.70;;;2.80;;
71106;SDS011;58763;47.982;11.516;2023-06-14T11:37:57;4.45;;;2.65;;
71106;SDS011;58763;47.982;11.516;2023-06-14T11:40:24;9.02;;;2.70;;
71106;SDS011;58763;47.982;11.516;2023-06-14T11:42:57;5.88;;;2.70;;
71106;SDS011;58763;47.982;11.516;2023-06-14T11:45:26;4.82;;;2.70;;
71106;SDS011;58763;47.982;11.516;2023-06-14T11:47:53;6.40;;;2.95;;
71106;SDS011;58763;47.982;11.516;2023-06-14T11:50:21;4.65;;;2.75;;
71106;SDS011;58763;47.982;11.516;2023-06-14T11:52:52;5.43;;;2.63;;
71106;SDS011;58763;47.982;11.516;2023-06-14T11:55:22;4.28;;;2.58;;
71106;SDS011;58763;47.982;11.516;2023-06-14T11:57:48;4.72;;;2.75;;
71106;SDS011;58763;47.982;11.516;2023-06-14T12:00:14;4.88;;;2.88;;
71106;SDS011;58763;47.982;11.516;2023-06-14T12:02:41;5.32;;;3.00;;
71106;SDS011;58763;47.982;11.516;2023-06-14T12:05:08;5.75;;;2.80;;
71106;SDS011;58763;47.982;11.516;2023-06-14T12:07:36;4.72;;;2.50;;
71106;SDS011;58763;47.982;11.516;2023-06-14T12:12:28;4.45;;;2.42;;
71106;SDS011;58763;47.982;11.516;2023-06-14T12:14:57;10.18;;;3.00;;
71106;SDS011;58763;47.982;11.516;2023-06-14T12:17:23;5.72;;;2.65;;
71106;SDS011;58763;47.982;11.516;2023-06-14T12:19:49;6.15;;;2.92;;
71106;SDS011;58763;47.982;11.516;2023-06-14T12:22:15;4.05;;;2.47;;
71106;SDS011;58763;47.982;11.516;2023-06-14T12:24:42;5.90;;;2.78;;
71106;SDS011;58763;47.982;11.516;2023-06-14T12:27:08;6.00;;;2.60;;
71106;SDS011;58763;47.982;11.516;2023-06-14T12:29:34;4.28;;;2.60;;
71106;SDS011;58763;47.982;11.516;2023-06-14T12:32:01;4.72;;;2.72;;
71106;SDS011;58763;47.982;11.516;2023-06-14T12:34:26;5.22;;;2.65;;
71106;SDS011;58763;47.982;11.516;2023-06-14T12:36:53;6.03;;;2.90;;
71106;SDS011;58763;47.982;11.516;2023-06-14T12:39:19;5.75;;;2.50;;
71106;SDS011;58763;47.982;11.516;2023-06-14T12:41:45;5.85;;;2.60;;
71106;SDS011;58763;47.982;11.516;2023-06-14T12:44:11;7.82;;;2.70;;
71106;SDS011;58763;47.982;11.516;2023-06-14T12:46:37;4.80;;;2.60;;
71106;SDS011;58763;47.982;11.516;2023-06-14T12:49:08;5.03;;;2.80;;
71106;SDS011;58763;47.982;11.516;2023-06-14T12:51:35;5.65;;;2.63;;
71106;SDS011;58763;47.982;11.516;2023-06-14T12:54:00;5.53;;;2.65;;
71106;SDS011;58763;47.982;11.516;2023-06-14T12:56:26;5.80;;;2.67;;
71106;SDS011;58763;47.982;11.516;2023-06-14T12:58:51;5.53;;;2.60;;
71106;SDS011;58763;47.982;11.516;2023-06-14T13:01:17;6.47;;;2.55;;
71106;SDS011;58763;47.982;11.516;2023-06-14T13:03:43;4.93;;;2.70;;
71106;SDS011;58763;47.982;11.516;2023-06-14T13:06:08;5.90;;;2.90;;
71106;SDS011;58763;47.982;11.516;2023-06-14T13:08:34;4.32;;;2.53;;
71106;SDS011;58763;47.982;11.516;2023-06-14T13:10:59;6.25;;;2.50;;
71106;SDS011;58763;47.982;11.516;2023-06-14T13:13:25;5.65;;;3.00;;
71106;SDS011;58763;47.982;11.516;2023-06-14T13:15:50;5.15;;;2.97;;
71106;SDS011;58763;47.982;11.516;2023-06-14T13:18:16;5.40;;;2.70;;
71106;SDS011;58763;47.982;11.516;2023-06-14T13:20:42;4.93;;;2.97;;
71106;SDS011;58763;47.982;11.516;2023-06-14T13:23:08;4.97;;;2.45;;
71106;SDS011;58763;47.982;11.516;2023-06-14T13:25:35;4.35;;;2.80;;
71106;SDS011;58763;47.982;11.516;2023-06-14T13:28:01;5.43;;;2.70;;
71106;SDS011;58763;47.982;11.516;2023-06-14T13:30:28;6.13;;;2.78;;
71106;SDS011;58763;47.982;11.516;2023-06-14T13:32:54;4.70;;;2.47;;
71106;SDS011;58763;47.982;11.516;2023-06-14T13:35:21;6.35;;;2.80;;
71106;SDS011;58763;47.982;11.516;2023-06-14T13:37:47;5.50;;;2.63;;
71106;SDS011;58763;47.982;11.516;2023-06-14T13:40:13;6.60;;;2.85;;
71106;SDS011;58763;47.982;11.516;2023-06-14T13:42:39;7.47;;;3.00;;
71106;SDS011;58763;47.982;11.516;2023-06-14T13:45:05;5.32;;;3.42;;
71106;SDS011;58763;47.982;11.516;2023-06-14T13:47:31;5.07;;;2.50;;
71106;SDS011;58763;47.982;11.516;2023-06-14T13:49:57;5.25;;;2.88;;
71106;SDS011;58763;47.982;11.516;2023-06-14T13:52:23;6.18;;;3.00;;
71106;SDS011;58763;47.982;11.516;2023-06-14T13:54:49;7.68;;;2.45;;
71106;SDS011;58763;47.982;11.516;2023-06-14T13:57:15;4.88;;;2.58;;
71106;SDS011;58763;47.982;11.516;2023-06-14T13:59:41;4.88;;;2.80;;
71106;SDS011;58763;47.982;11.516;2023-06-14T14:02:09;4.30;;;2.60;;
71106;SDS011;58763;47.982;11.516;2023-06-14T14:04:35;4.47;;;2.83;;
71106;SDS011;58763;47.982;11.516;2023-06-14T14:07:01;6.63;;;2.90;;
71106;SDS011;58763;47.982;11.516;2023-06-14T14:09:27;5.45;;;2.50;;
71106;SDS011;58763;47.982;11.516;2023-06-14T14:11:53;5.55;;;2.65;;
71106;SDS011;58763;47.982;11.516;2023-06-14T14:14:18;7.13;;;2.63;;
71106;SDS011;58763;47.982;11.516;2023-06-14T14:16:44;5.85;;;2.40;;
71106;SDS011;58763;47.982;11.516;2023-06-14T14:19:10;4.72;;;2.38;;
71106;SDS011;58763;47.982;11.516;2023-06-14T14:21:36;4.07;;;2.33;;
71106;SDS011;58763;47.982;11.516;2023-06-14T14:24:01;5.97;;;2.58;;
71106;SDS011;58763;47.982;11.516;2023-06-14T14:26:27;5.35;;;2.38;;
71106;SDS011;58763;47.982;11.516;2023-06-14T14:28:53;6.85;;;2.58;;
71106;SDS011;58763;47.982;11.516;2023-06-14T14:31:19;5.10;;;2.80;;
71106;SDS011;58763;47.982;11.516;2023-06-14T14:33:44;6.70;;;2.75;;
71106;SDS011;58763;47.982;11.516;2023-06-14T14:36:10;5.28;;;2.72;;
71106;SDS011;58763;47.982;11.516;2023-06-14T14:38:35;5.57;;;2.70;;
71106;SDS011;58763;47.982;11.516;2023-06-14T14:41:01;6.68;;;2.50;;
71106;SDS011;58763;47.982;11.516;2023-06-14T14:43:26;4.80;;;2.50;;
71106;SDS011;58763;47.982;11.516;2023-06-14T14:45:55;5.15;;;2.63;;
71106;SDS011;58763;47.982;11.516;2023-06-14T14:48:20;5.70;;;2.67;;
71106;SDS011;58763;47.982;11.516;2023-06-14T14:50:46;4.35;;;2.38;;
71106;SDS011;58763;47.982;11.516;2023-06-14T14:53:11;5.28;;;2.60;;